sensor_id;sensor_type;location;lat;lon;timestamp;temperature;humidity
47813;DHT22;34221;45.296;9.516;2022-07-23T00:00:09;30.80;56.70
47813;DHT22;34221;45.296;9.516;2022-07-23T00:00:24;30.80;55.90
47813;DHT22;34221;45.296;9.516;2022-07-23T00:00:39;30.80;55.70
47813;DHT22;34221;45.296;9.516;2022-07-23T00:00:54;30.80;57.20
47813;DHT22;34221;45.296;9.516;2022-07-23T00:01:09;30.80;56.20
47813;DHT22;34221;45.296;9.516;2022-07-23T00:01:24;30.80;55.90
47813;DHT22;34221;45.296;9.516;2022-07-23T00:01:39;30.80;57.20
47813;DHT22;34221;45.296;9.516;2022-07-23T00:01:55;30.80;57.60
47813;DHT22;34221;45.296;9.516;2022-07-23T00:02:10;30.80;57.70
47813;DHT22;34221;45.296;9.516;2022-07-23T00:02:25;30.80;56.20
47813;DHT22;34221;45.296;9.516;2022-07-23T00:02:40;30.80;56.50
47813;DHT22;34221;45.296;9.516;2022-07-23T00:02:55;30.80;57.60
47813;DHT22;34221;45.296;9.516;2022-07-23T00:03:10;30.70;57.00
47813;DHT22;34221;45.296;9.516;2022-07-23T00:03:25;30.80;55.50
47813;DHT22;34221;45.296;9.516;2022-07-23T00:03:41;30.80;57.50
47813;DHT22;34221;45.296;9.516;2022-07-23T00:03:56;30.80;58.50
47813;DHT22;34221;45.296;9.516;2022-07-23T00:04:11;30.80;56.20
47813;DHT22;34221;45.296;9.516;2022-07-23T00:04:26;30.70;56.90
47813;DHT22;34221;45.296;9.516;2022-07-23T00:04:41;30.80;57.60
47813;DHT22;34221;45.296;9.516;2022-07-23T00:04:56;30.70;57.60
47813;DHT22;34221;45.296;9.516;2022-07-23T00:05:11;30.70;56.30
47813;DHT22;34221;45.296;9.516;2022-07-23T00:05:26;30.80;57.90
47813;DHT22;34221;45.296;9.516;2022-07-23T00:05:41;30.70;56.40
47813;DHT22;34221;45.296;9.516;2022-07-23T00:05:55;30.70;57.40
47813;DHT22;34221;45.296;9.516;2022-07-23T00:06:10;30.70;56.40
47813;DHT22;34221;45.296;9.516;2022-07-23T00:06:26;30.70;55.80
47813;DHT22;34221;45.296;9.516;2022-07-23T00:06:41;30.70;57.00
47813;DHT22;34221;45.296;9.516;2022-07-23T00:06:56;30.70;56.60
47813;DHT22;34221;45.296;9.516;2022-07-23T00:07:10;30.70;55.80
47813;DHT22;34221;45.296;9.516;2022-07-23T00:07:25;30.70;55.90
47813;DHT22;34221;45.296;9.516;2022-07-23T00:07:40;30.70;55.80
47813;DHT22;34221;45.296;9.516;2022-07-23T00:07:55;30.70;57.00
47813;DHT22;34221;45.296;9.516;2022-07-23T00:08:10;30.70;58.40
47813;DHT22;34221;45.296;9.516;2022-07-23T00:08:25;30.70;57.00
47813;DHT22;34221;45.296;9.516;2022-07-23T00:08:41;30.70;57.80
47813;DHT22;34221;45.296;9.516;2022-07-23T00:08:56;30.70;58.10
47813;DHT22;34221;45.296;9.516;2022-07-23T00:09:11;30.70;57.00
47813;DHT22;34221;45.296;9.516;2022-07-23T00:09:26;30.70;56.50
47813;DHT22;34221;45.296;9.516;2022-07-23T00:09:45;30.70;56.20
47813;DHT22;34221;45.296;9.516;2022-07-23T00:10:00;30.70;57.40
47813;DHT22;34221;45.296;9.516;2022-07-23T00:10:15;30.50;57.20
47813;DHT22;34221;45.296;9.516;2022-07-23T00:10:30;30.50;57.70
47813;DHT22;34221;45.296;9.516;2022-07-23T00:10:45;30.50;56.70
47813;DHT22;34221;45.296;9.516;2022-07-23T00:11:00;30.40;59.00
47813;DHT22;34221;45.296;9.516;2022-07-23T00:11:15;30.50;59.40
47813;DHT22;34221;45.296;9.516;2022-07-23T00:11:30;30.50;58.70
47813;DHT22;34221;45.296;9.516;2022-07-23T00:11:45;30.50;57.20
47813;DHT22;34221;45.296;9.516;2022-07-23T00:12:00;30.50;57.50
47813;DHT22;34221;45.296;9.516;2022-07-23T00:12:15;30.50;57.40
47813;DHT22;34221;45.296;9.516;2022-07-23T00:12:30;30.50;57.10
47813;DHT22;34221;45.296;9.516;2022-07-23T00:12:46;30.50;55.80
47813;DHT22;34221;45.296;9.516;2022-07-23T00:13:01;30.50;55.70
47813;DHT22;34221;45.296;9.516;2022-07-23T00:13:17;30.50;55.80
47813;DHT22;34221;45.296;9.516;2022-07-23T00:13:32;30.40;55.20
47813;DHT22;34221;45.296;9.516;2022-07-23T00:13:47;30.40;55.90
47813;DHT22;34221;45.296;9.516;2022-07-23T00:14:03;30.40;55.00
47813;DHT22;34221;45.296;9.516;2022-07-23T00:14:18;30.40;55.30
47813;DHT22;34221;45.296;9.516;2022-07-23T00:14:33;30.40;55.00
47813;DHT22;34221;45.296;9.516;2022-07-23T00:14:48;30.40;55.20
47813;DHT22;34221;45.296;9.516;2022-07-23T00:15:04;30.40;55.30
47813;DHT22;34221;45.296;9.516;2022-07-23T00:15:20;30.40;55.80
47813;DHT22;34221;45.296;9.516;2022-07-23T00:15:35;30.40;56.30
47813;DHT22;34221;45.296;9.516;2022-07-23T00:15:50;30.40;55.60
47813;DHT22;34221;45.296;9.516;2022-07-23T00:16:05;30.40;55.20
47813;DHT22;34221;45.296;9.516;2022-07-23T00:16:20;30.40;55.60
47813;DHT22;34221;45.296;9.516;2022-07-23T00:16:36;30.40;55.60
47813;DHT22;34221;45.296;9.516;2022-07-23T00:16:51;30.40;55.70
47813;DHT22;34221;45.296;9.516;2022-07-23T00:17:05;30.40;55.10
47813;DHT22;34221;45.296;9.516;2022-07-23T00:17:20;30.40;55.40
47813;DHT22;34221;45.296;9.516;2022-07-23T00:17:35;30.40;55.90
47813;DHT22;34221;45.296;9.516;2022-07-23T00:17:51;30.40;55.80
47813;DHT22;34221;45.296;9.516;2022-07-23T00:18:06;30.30;55.30
47813;DHT22;34221;45.296;9.516;2022-07-23T00:18:21;30.40;56.20
47813;DHT22;34221;45.296;9.516;2022-07-23T00:18:36;30.40;56.40
47813;DHT22;34221;45.296;9.516;2022-07-23T00:18:51;30.40;56.10
47813;DHT22;34221;45.296;9.516;2022-07-23T00:19:06;30.40;55.10
47813;DHT22;34221;45.296;9.516;2022-07-23T00:19:21;30.40;57.20
47813;DHT22;34221;45.296;9.516;2022-07-23T00:19:36;30.40;56.40
47813;DHT22;34221;45.296;9.516;2022-07-23T00:19:51;30.40;55.60
47813;DHT22;34221;45.296;9.516;2022-07-23T00:20:08;30.40;55.80
47813;DHT22;34221;45.296;9.516;2022-07-23T00:20:23;30.40;56.30
47813;DHT22;34221;45.296;9.516;2022-07-23T00:20:38;30.40;55.50
47813;DHT22;34221;45.296;9.516;2022-07-23T00:20:53;30.40;57.00
47813;DHT22;34221;45.296;9.516;2022-07-23T00:21:08;30.40;58.10
47813;DHT22;34221;45.296;9.516;2022-07-23T00:21:23;30.40;56.70
47813;DHT22;34221;45.296;9.516;2022-07-23T00:21:38;30.40;56.10
47813;DHT22;34221;45.296;9.516;2022-07-23T00:21:53;30.40;55.30
47813;DHT22;34221;45.296;9.516;2022-07-23T00:22:08;30.30;55.50
47813;DHT22;34221;45.296;9.516;2022-07-23T00:22:23;30.30;55.30
47813;DHT22;34221;45.296;9.516;2022-07-23T00:22:53;30.30;55.00
47813;DHT22;34221;45.296;9.516;2022-07-23T00:23:09;30.30;55.60
47813;DHT22;34221;45.296;9.516;2022-07-23T00:23:24;30.30;55.60
47813;DHT22;34221;45.296;9.516;2022-07-23T00:23:39;30.30;57.40
47813;DHT22;34221;45.296;9.516;2022-07-23T00:23:54;30.30;56.60
47813;DHT22;34221;45.296;9.516;2022-07-23T00:24:10;30.30;59.10
47813;DHT22;34221;45.296;9.516;2022-07-23T00:24:25;30.30;56.70
47813;DHT22;34221;45.296;9.516;2022-07-23T00:24:40;30.30;57.40
47813;DHT22;34221;45.296;9.516;2022-07-23T00:24:56;30.30;55.70
47813;DHT22;34221;45.296;9.516;2022-07-23T00:25:11;30.30;55.30
47813;DHT22;34221;45.296;9.516;2022-07-23T00:25:26;30.30;55.20
47813;DHT22;34221;45.296;9.516;2022-07-23T00:25:42;30.30;55.60
47813;DHT22;34221;45.296;9.516;2022-07-23T00:25:57;30.20;57.20
47813;DHT22;34221;45.296;9.516;2022-07-23T00:26:12;30.20;57.00
47813;DHT22;34221;45.296;9.516;2022-07-23T00:26:27;30.20;56.10
47813;DHT22;34221;45.296;9.516;2022-07-23T00:26:42;30.20;55.90
47813;DHT22;34221;45.296;9.516;2022-07-23T00:26:57;30.30;56.10
47813;DHT22;34221;45.296;9.516;2022-07-23T00:27:12;30.20;55.80
47813;DHT22;34221;45.296;9.516;2022-07-23T00:27:27;30.20;55.70
47813;DHT22;34221;45.296;9.516;2022-07-23T00:27:42;30.20;55.60
47813;DHT22;34221;45.296;9.516;2022-07-23T00:27:58;30.20;56.50
47813;DHT22;34221;45.296;9.516;2022-07-23T00:28:14;30.20;56.50
47813;DHT22;34221;45.296;9.516;2022-07-23T00:28:29;30.20;56.70
47813;DHT22;34221;45.296;9.516;2022-07-23T00:28:44;30.20;55.20
47813;DHT22;34221;45.296;9.516;2022-07-23T00:28:59;30.20;55.60
47813;DHT22;34221;45.296;9.516;2022-07-23T00:29:13;30.20;55.50
47813;DHT22;34221;45.296;9.516;2022-07-23T00:29:28;30.20;55.50
47813;DHT22;34221;45.296;9.516;2022-07-23T00:29:44;30.20;55.40
47813;DHT22;34221;45.296;9.516;2022-07-23T00:29:59;30.20;55.20
47813;DHT22;34221;45.296;9.516;2022-07-23T00:30:14;30.20;55.80
47813;DHT22;34221;45.296;9.516;2022-07-23T00:30:30;30.20;55.60
47813;DHT22;34221;45.296;9.516;2022-07-23T00:30:46;30.10;55.60
47813;DHT22;34221;45.296;9.516;2022-07-23T00:31:36;30.10;55.40
47813;DHT22;34221;45.296;9.516;2022-07-23T00:31:51;30.10;55.40
47813;DHT22;34221;45.296;9.516;2022-07-23T00:32:06;30.10;55.30
47813;DHT22;34221;45.296;9.516;2022-07-23T00:32:21;30.10;55.30
47813;DHT22;34221;45.296;9.516;2022-07-23T00:32:50;30.10;55.80
47813;DHT22;34221;45.296;9.516;2022-07-23T00:33:07;30.10;56.60
47813;DHT22;34221;45.296;9.516;2022-07-23T00:33:23;30.10;55.60
47813;DHT22;34221;45.296;9.516;2022-07-23T00:33:38;30.10;55.50
47813;DHT22;34221;45.296;9.516;2022-07-23T00:33:53;30.00;55.40
47813;DHT22;34221;45.296;9.516;2022-07-23T00:34:11;30.00;55.60
47813;DHT22;34221;45.296;9.516;2022-07-23T00:34:26;30.00;55.90
47813;DHT22;34221;45.296;9.516;2022-07-23T00:34:41;30.00;56.20
47813;DHT22;34221;45.296;9.516;2022-07-23T00:34:56;30.00;55.90
47813;DHT22;34221;45.296;9.516;2022-07-23T00:35:11;30.00;55.70
47813;DHT22;34221;45.296;9.516;2022-07-23T00:35:28;30.00;55.70
47813;DHT22;34221;45.296;9.516;2022-07-23T00:35:44;30.00;55.90
47813;DHT22;34221;45.296;9.516;2022-07-23T00:35:59;30.00;55.80
47813;DHT22;34221;45.296;9.516;2022-07-23T00:36:14;30.00;55.70
47813;DHT22;34221;45.296;9.516;2022-07-23T00:36:29;30.00;55.50
47813;DHT22;34221;45.296;9.516;2022-07-23T00:36:45;29.90;56.20
47813;DHT22;34221;45.296;9.516;2022-07-23T00:37:00;30.00;56.00
47813;DHT22;34221;45.296;9.516;2022-07-23T00:37:15;30.00;56.00
47813;DHT22;34221;45.296;9.516;2022-07-23T00:37:30;29.90;57.50
47813;DHT22;34221;45.296;9.516;2022-07-23T00:37:45;29.90;55.90
47813;DHT22;34221;45.296;9.516;2022-07-23T00:38:01;29.90;56.20
47813;DHT22;34221;45.296;9.516;2022-07-23T00:38:17;29.90;56.30
47813;DHT22;34221;45.296;9.516;2022-07-23T00:38:32;29.90;56.10
47813;DHT22;34221;45.296;9.516;2022-07-23T00:38:47;29.90;55.80
47813;DHT22;34221;45.296;9.516;2022-07-23T00:39:02;29.90;56.20
47813;DHT22;34221;45.296;9.516;2022-07-23T00:39:17;29.90;57.00
47813;DHT22;34221;45.296;9.516;2022-07-23T00:39:32;29.90;57.10
47813;DHT22;34221;45.296;9.516;2022-07-23T00:39:47;29.90;56.40
47813;DHT22;34221;45.296;9.516;2022-07-23T00:40:02;29.80;56.50
47813;DHT22;34221;45.296;9.516;2022-07-23T00:40:18;29.80;56.50
47813;DHT22;34221;45.296;9.516;2022-07-23T00:40:33;29.80;57.20
47813;DHT22;34221;45.296;9.516;2022-07-23T00:40:48;29.80;56.60
47813;DHT22;34221;45.296;9.516;2022-07-23T00:41:04;29.90;56.60
47813;DHT22;34221;45.296;9.516;2022-07-23T00:41:19;29.80;56.50
47813;DHT22;34221;45.296;9.516;2022-07-23T00:41:34;29.80;56.10
47813;DHT22;34221;45.296;9.516;2022-07-23T00:41:50;29.90;56.60
47813;DHT22;34221;45.296;9.516;2022-07-23T00:42:05;29.80;57.40
47813;DHT22;34221;45.296;9.516;2022-07-23T00:42:20;29.80;56.40
47813;DHT22;34221;45.296;9.516;2022-07-23T00:42:35;29.80;56.80
47813;DHT22;34221;45.296;9.516;2022-07-23T00:42:50;29.80;56.50
47813;DHT22;34221;45.296;9.516;2022-07-23T00:43:05;29.80;56.90
47813;DHT22;34221;45.296;9.516;2022-07-23T00:43:21;29.80;57.00
47813;DHT22;34221;45.296;9.516;2022-07-23T00:43:36;29.80;56.50
47813;DHT22;34221;45.296;9.516;2022-07-23T00:43:51;29.80;56.60
47813;DHT22;34221;45.296;9.516;2022-07-23T00:44:22;29.80;56.50
47813;DHT22;34221;45.296;9.516;2022-07-23T00:44:38;29.90;56.60
47813;DHT22;34221;45.296;9.516;2022-07-23T00:44:54;29.80;56.80
47813;DHT22;34221;45.296;9.516;2022-07-23T00:45:09;29.80;57.50
47813;DHT22;34221;45.296;9.516;2022-07-23T00:45:44;29.80;56.60
47813;DHT22;34221;45.296;9.516;2022-07-23T00:46:00;29.80;57.90
47813;DHT22;34221;45.296;9.516;2022-07-23T00:46:21;29.80;56.10
47813;DHT22;34221;45.296;9.516;2022-07-23T00:46:37;29.80;56.60
47813;DHT22;34221;45.296;9.516;2022-07-23T00:46:57;29.80;56.20
47813;DHT22;34221;45.296;9.516;2022-07-23T00:47:12;29.80;55.70
47813;DHT22;34221;45.296;9.516;2022-07-23T00:47:28;29.80;56.80
47813;DHT22;34221;45.296;9.516;2022-07-23T00:47:43;29.80;56.10
47813;DHT22;34221;45.296;9.516;2022-07-23T00:47:58;29.80;57.10
47813;DHT22;34221;45.296;9.516;2022-07-23T00:48:13;29.80;56.40
47813;DHT22;34221;45.296;9.516;2022-07-23T00:48:28;29.80;56.50
47813;DHT22;34221;45.296;9.516;2022-07-23T00:48:43;29.80;56.30
47813;DHT22;34221;45.296;9.516;2022-07-23T00:48:58;29.80;56.40
47813;DHT22;34221;45.296;9.516;2022-07-23T00:49:13;29.90;56.40
47813;DHT22;34221;45.296;9.516;2022-07-23T00:49:29;29.80;56.20
47813;DHT22;34221;45.296;9.516;2022-07-23T00:49:44;29.80;56.50
47813;DHT22;34221;45.296;9.516;2022-07-23T00:50:00;29.90;56.30
47813;DHT22;34221;45.296;9.516;2022-07-23T00:50:15;29.90;57.70
47813;DHT22;34221;45.296;9.516;2022-07-23T00:50:30;29.80;56.70
47813;DHT22;34221;45.296;9.516;2022-07-23T00:50:45;29.90;57.20
47813;DHT22;34221;45.296;9.516;2022-07-23T00:51:00;29.90;56.70
47813;DHT22;34221;45.296;9.516;2022-07-23T00:51:18;29.80;56.20
47813;DHT22;34221;45.296;9.516;2022-07-23T00:51:33;29.80;56.20
47813;DHT22;34221;45.296;9.516;2022-07-23T00:51:48;29.80;56.20
47813;DHT22;34221;45.296;9.516;2022-07-23T00:52:04;29.80;55.90
47813;DHT22;34221;45.296;9.516;2022-07-23T00:52:21;29.80;56.90
47813;DHT22;34221;45.296;9.516;2022-07-23T00:52:37;29.80;56.40
47813;DHT22;34221;45.296;9.516;2022-07-23T00:52:55;29.80;56.60
47813;DHT22;34221;45.296;9.516;2022-07-23T00:53:10;29.80;56.20
47813;DHT22;34221;45.296;9.516;2022-07-23T00:53:25;29.80;56.10
47813;DHT22;34221;45.296;9.516;2022-07-23T00:53:41;29.80;56.10
47813;DHT22;34221;45.296;9.516;2022-07-23T00:53:56;29.80;56.50
47813;DHT22;34221;45.296;9.516;2022-07-23T00:54:11;29.80;56.70
47813;DHT22;34221;45.296;9.516;2022-07-23T00:54:27;29.80;58.20
47813;DHT22;34221;45.296;9.516;2022-07-23T00:54:42;29.80;56.50
47813;DHT22;34221;45.296;9.516;2022-07-23T00:54:58;29.80;56.60
47813;DHT22;34221;45.296;9.516;2022-07-23T00:55:14;29.90;56.60
47813;DHT22;34221;45.296;9.516;2022-07-23T00:55:29;29.80;57.60
47813;DHT22;34221;45.296;9.516;2022-07-23T00:55:44;29.80;56.80
47813;DHT22;34221;45.296;9.516;2022-07-23T00:55:59;29.80;56.50
47813;DHT22;34221;45.296;9.516;2022-07-23T00:56:15;29.80;56.10
47813;DHT22;34221;45.296;9.516;2022-07-23T00:56:30;29.90;57.40
47813;DHT22;34221;45.296;9.516;2022-07-23T00:56:46;29.80;57.50
47813;DHT22;34221;45.296;9.516;2022-07-23T00:57:02;29.80;56.80
47813;DHT22;34221;45.296;9.516;2022-07-23T00:57:18;29.80;57.40
47813;DHT22;34221;45.296;9.516;2022-07-23T00:57:33;29.80;56.90
47813;DHT22;34221;45.296;9.516;2022-07-23T00:57:50;29.80;56.40
47813;DHT22;34221;45.296;9.516;2022-07-23T00:58:05;29.80;56.40
47813;DHT22;34221;45.296;9.516;2022-07-23T00:58:21;29.80;56.40
47813;DHT22;34221;45.296;9.516;2022-07-23T00:58:36;29.80;56.20
47813;DHT22;34221;45.296;9.516;2022-07-23T00:58:53;29.80;57.30
47813;DHT22;34221;45.296;9.516;2022-07-23T00:59:08;29.80;56.60
47813;DHT22;34221;45.296;9.516;2022-07-23T00:59:23;29.90;57.50
47813;DHT22;34221;45.296;9.516;2022-07-23T00:59:39;29.90;57.40
47813;DHT22;34221;45.296;9.516;2022-07-23T00:59:54;29.80;56.80
47813;DHT22;34221;45.296;9.516;2022-07-23T01:00:12;29.80;56.10
47813;DHT22;34221;45.296;9.516;2022-07-23T01:00:28;29.80;57.50
47813;DHT22;34221;45.296;9.516;2022-07-23T01:00:43;29.80;56.80
47813;DHT22;34221;45.296;9.516;2022-07-23T01:00:58;29.80;56.20
47813;DHT22;34221;45.296;9.516;2022-07-23T01:01:13;29.90;56.70
47813;DHT22;34221;45.296;9.516;2022-07-23T01:01:28;29.80;58.40
47813;DHT22;34221;45.296;9.516;2022-07-23T01:01:43;29.90;58.20
47813;DHT22;34221;45.296;9.516;2022-07-23T01:02:03;29.80;57.50
47813;DHT22;34221;45.296;9.516;2022-07-23T01:02:18;29.80;58.00
47813;DHT22;34221;45.296;9.516;2022-07-23T01:02:34;29.80;56.60
47813;DHT22;34221;45.296;9.516;2022-07-23T01:02:50;29.80;55.90
47813;DHT22;34221;45.296;9.516;2022-07-23T01:03:05;29.80;56.10
47813;DHT22;34221;45.296;9.516;2022-07-23T01:03:20;29.80;56.30
47813;DHT22;34221;45.296;9.516;2022-07-23T01:03:34;29.80;56.10
47813;DHT22;34221;45.296;9.516;2022-07-23T01:03:50;29.80;56.80
47813;DHT22;34221;45.296;9.516;2022-07-23T01:04:05;29.80;56.10
47813;DHT22;34221;45.296;9.516;2022-07-23T01:04:20;29.80;57.40
47813;DHT22;34221;45.296;9.516;2022-07-23T01:04:35;29.80;57.50
47813;DHT22;34221;45.296;9.516;2022-07-23T01:04:50;29.80;56.90
47813;DHT22;34221;45.296;9.516;2022-07-23T01:05:06;29.80;56.20
47813;DHT22;34221;45.296;9.516;2022-07-23T01:05:22;29.80;56.80
47813;DHT22;34221;45.296;9.516;2022-07-23T01:05:43;29.80;57.50
47813;DHT22;34221;45.296;9.516;2022-07-23T01:05:59;29.80;56.40
47813;DHT22;34221;45.296;9.516;2022-07-23T01:06:14;29.80;56.10
47813;DHT22;34221;45.296;9.516;2022-07-23T01:06:32;29.80;56.00
47813;DHT22;34221;45.296;9.516;2022-07-23T01:06:50;29.80;56.10
47813;DHT22;34221;45.296;9.516;2022-07-23T01:07:05;29.80;57.30
47813;DHT22;34221;45.296;9.516;2022-07-23T01:07:20;29.80;56.50
47813;DHT22;34221;45.296;9.516;2022-07-23T01:07:35;29.80;56.50
47813;DHT22;34221;45.296;9.516;2022-07-23T01:07:51;29.80;56.50
47813;DHT22;34221;45.296;9.516;2022-07-23T01:08:06;29.80;56.60
47813;DHT22;34221;45.296;9.516;2022-07-23T01:08:21;29.80;56.50
47813;DHT22;34221;45.296;9.516;2022-07-23T01:08:36;29.80;56.20
47813;DHT22;34221;45.296;9.516;2022-07-23T01:08:54;29.80;57.20
47813;DHT22;34221;45.296;9.516;2022-07-23T01:09:09;29.80;56.30
47813;DHT22;34221;45.296;9.516;2022-07-23T01:09:24;29.80;56.20
47813;DHT22;34221;45.296;9.516;2022-07-23T01:09:40;29.80;56.40
47813;DHT22;34221;45.296;9.516;2022-07-23T01:09:55;29.80;58.10
47813;DHT22;34221;45.296;9.516;2022-07-23T01:10:10;29.80;58.40
47813;DHT22;34221;45.296;9.516;2022-07-23T01:10:44;29.80;57.50
47813;DHT22;34221;45.296;9.516;2022-07-23T01:10:59;29.80;56.20
47813;DHT22;34221;45.296;9.516;2022-07-23T01:11:14;29.80;57.10
47813;DHT22;34221;45.296;9.516;2022-07-23T01:11:31;29.80;57.30
47813;DHT22;34221;45.296;9.516;2022-07-23T01:11:50;29.80;59.10
47813;DHT22;34221;45.296;9.516;2022-07-23T01:12:06;29.80;57.70
47813;DHT22;34221;45.296;9.516;2022-07-23T01:12:22;29.80;56.60
47813;DHT22;34221;45.296;9.516;2022-07-23T01:12:37;29.80;56.90
47813;DHT22;34221;45.296;9.516;2022-07-23T01:12:52;29.80;56.70
47813;DHT22;34221;45.296;9.516;2022-07-23T01:13:09;29.80;57.70
47813;DHT22;34221;45.296;9.516;2022-07-23T01:13:25;29.80;56.90
47813;DHT22;34221;45.296;9.516;2022-07-23T01:13:43;29.80;58.00
47813;DHT22;34221;45.296;9.516;2022-07-23T01:13:58;29.80;57.60
47813;DHT22;34221;45.296;9.516;2022-07-23T01:14:15;29.80;57.30
47813;DHT22;34221;45.296;9.516;2022-07-23T01:14:31;29.80;59.30
47813;DHT22;34221;45.296;9.516;2022-07-23T01:14:59;29.70;56.80
47813;DHT22;34221;45.296;9.516;2022-07-23T01:15:17;29.80;57.90
47813;DHT22;34221;45.296;9.516;2022-07-23T01:15:34;29.80;58.20
47813;DHT22;34221;45.296;9.516;2022-07-23T01:15:50;29.80;57.90
47813;DHT22;34221;45.296;9.516;2022-07-23T01:16:05;29.80;57.10
47813;DHT22;34221;45.296;9.516;2022-07-23T01:16:20;29.80;56.60
47813;DHT22;34221;45.296;9.516;2022-07-23T01:16:35;29.70;56.60
47813;DHT22;34221;45.296;9.516;2022-07-23T01:16:50;29.70;56.60
47813;DHT22;34221;45.296;9.516;2022-07-23T01:17:05;29.70;57.00
47813;DHT22;34221;45.296;9.516;2022-07-23T01:17:21;29.70;57.80
47813;DHT22;34221;45.296;9.516;2022-07-23T01:17:36;29.70;58.00
47813;DHT22;34221;45.296;9.516;2022-07-23T01:17:51;29.70;57.50
47813;DHT22;34221;45.296;9.516;2022-07-23T01:18:07;29.70;57.90
47813;DHT22;34221;45.296;9.516;2022-07-23T01:18:24;29.70;57.60
47813;DHT22;34221;45.296;9.516;2022-07-23T01:18:39;29.70;56.40
47813;DHT22;34221;45.296;9.516;2022-07-23T01:18:54;29.70;56.30
47813;DHT22;34221;45.296;9.516;2022-07-23T01:19:10;29.70;56.50
47813;DHT22;34221;45.296;9.516;2022-07-23T01:19:25;29.60;56.60
47813;DHT22;34221;45.296;9.516;2022-07-23T01:19:40;29.60;56.90
47813;DHT22;34221;45.296;9.516;2022-07-23T01:19:55;29.60;57.20
47813;DHT22;34221;45.296;9.516;2022-07-23T01:20:10;29.70;57.70
47813;DHT22;34221;45.296;9.516;2022-07-23T01:20:26;29.60;58.20
47813;DHT22;34221;45.296;9.516;2022-07-23T01:20:41;29.60;57.40
47813;DHT22;34221;45.296;9.516;2022-07-23T01:20:57;29.60;57.20
47813;DHT22;34221;45.296;9.516;2022-07-23T01:21:13;29.60;57.40
47813;DHT22;34221;45.296;9.516;2022-07-23T01:21:28;29.60;57.30
47813;DHT22;34221;45.296;9.516;2022-07-23T01:21:45;29.60;58.10
47813;DHT22;34221;45.296;9.516;2022-07-23T01:22:03;29.60;57.50
47813;DHT22;34221;45.296;9.516;2022-07-23T01:22:20;29.60;58.10
47813;DHT22;34221;45.296;9.516;2022-07-23T01:22:35;29.60;58.10
47813;DHT22;34221;45.296;9.516;2022-07-23T01:22:51;29.60;58.00
47813;DHT22;34221;45.296;9.516;2022-07-23T01:23:07;29.60;59.70
47813;DHT22;34221;45.296;9.516;2022-07-23T01:23:23;29.60;57.90
47813;DHT22;34221;45.296;9.516;2022-07-23T01:23:43;29.60;57.90
47813;DHT22;34221;45.296;9.516;2022-07-23T01:23:58;29.60;57.40
47813;DHT22;34221;45.296;9.516;2022-07-23T01:24:14;29.60;57.30
47813;DHT22;34221;45.296;9.516;2022-07-23T01:24:37;29.60;57.40
47813;DHT22;34221;45.296;9.516;2022-07-23T01:24:53;29.60;57.50
47813;DHT22;34221;45.296;9.516;2022-07-23T01:25:13;29.60;57.40
47813;DHT22;34221;45.296;9.516;2022-07-23T01:25:32;29.60;57.10
47813;DHT22;34221;45.296;9.516;2022-07-23T01:25:52;29.60;56.90
47813;DHT22;34221;45.296;9.516;2022-07-23T01:26:08;29.60;59.00
47813;DHT22;34221;45.296;9.516;2022-07-23T01:26:23;29.60;57.50
47813;DHT22;34221;45.296;9.516;2022-07-23T01:26:43;29.60;58.80
47813;DHT22;34221;45.296;9.516;2022-07-23T01:26:59;29.60;58.10
47813;DHT22;34221;45.296;9.516;2022-07-23T01:27:14;29.60;57.30
47813;DHT22;34221;45.296;9.516;2022-07-23T01:27:32;29.60;57.40
47813;DHT22;34221;45.296;9.516;2022-07-23T01:27:52;29.60;59.20
47813;DHT22;34221;45.296;9.516;2022-07-23T01:28:08;29.50;56.90
47813;DHT22;34221;45.296;9.516;2022-07-23T01:28:23;29.60;57.20
47813;DHT22;34221;45.296;9.516;2022-07-23T01:28:38;29.50;57.00
47813;DHT22;34221;45.296;9.516;2022-07-23T01:28:55;29.50;56.70
47813;DHT22;34221;45.296;9.516;2022-07-23T01:29:10;29.50;57.00
47813;DHT22;34221;45.296;9.516;2022-07-23T01:29:26;29.50;57.70
47813;DHT22;34221;45.296;9.516;2022-07-23T01:29:43;29.50;58.40
47813;DHT22;34221;45.296;9.516;2022-07-23T01:30:04;29.50;57.10
47813;DHT22;34221;45.296;9.516;2022-07-23T01:30:20;29.50;56.90
47813;DHT22;34221;45.296;9.516;2022-07-23T01:30:35;29.50;56.90
47813;DHT22;34221;45.296;9.516;2022-07-23T01:30:54;29.50;57.20
47813;DHT22;34221;45.296;9.516;2022-07-23T01:31:09;29.50;56.90
47813;DHT22;34221;45.296;9.516;2022-07-23T01:31:25;29.50;57.00
47813;DHT22;34221;45.296;9.516;2022-07-23T01:31:41;29.50;57.00
47813;DHT22;34221;45.296;9.516;2022-07-23T01:31:57;29.50;57.30
47813;DHT22;34221;45.296;9.516;2022-07-23T01:32:12;29.40;58.00
47813;DHT22;34221;45.296;9.516;2022-07-23T01:32:27;29.40;57.20
47813;DHT22;34221;45.296;9.516;2022-07-23T01:32:42;29.40;57.10
47813;DHT22;34221;45.296;9.516;2022-07-23T01:32:57;29.40;57.20
47813;DHT22;34221;45.296;9.516;2022-07-23T01:33:13;29.40;57.30
47813;DHT22;34221;45.296;9.516;2022-07-23T01:33:28;29.40;57.40
47813;DHT22;34221;45.296;9.516;2022-07-23T01:33:43;29.40;57.40
47813;DHT22;34221;45.296;9.516;2022-07-23T01:33:58;29.40;57.20
47813;DHT22;34221;45.296;9.516;2022-07-23T01:34:13;29.40;57.20
47813;DHT22;34221;45.296;9.516;2022-07-23T01:34:29;29.40;57.80
47813;DHT22;34221;45.296;9.516;2022-07-23T01:34:44;29.40;57.50
47813;DHT22;34221;45.296;9.516;2022-07-23T01:35:00;29.40;57.40
47813;DHT22;34221;45.296;9.516;2022-07-23T01:35:15;29.40;57.40
47813;DHT22;34221;45.296;9.516;2022-07-23T01:35:30;29.30;57.80
47813;DHT22;34221;45.296;9.516;2022-07-23T01:35:50;29.30;57.30
47813;DHT22;34221;45.296;9.516;2022-07-23T01:36:10;29.30;57.70
47813;DHT22;34221;45.296;9.516;2022-07-23T01:36:26;29.30;58.30
47813;DHT22;34221;45.296;9.516;2022-07-23T01:36:41;29.30;57.70
47813;DHT22;34221;45.296;9.516;2022-07-23T01:36:58;29.30;57.30
47813;DHT22;34221;45.296;9.516;2022-07-23T01:37:13;29.30;58.10
47813;DHT22;34221;45.296;9.516;2022-07-23T01:37:28;29.30;57.90
47813;DHT22;34221;45.296;9.516;2022-07-23T01:37:44;29.30;58.40
47813;DHT22;34221;45.296;9.516;2022-07-23T01:37:59;29.30;57.80
47813;DHT22;34221;45.296;9.516;2022-07-23T01:38:14;29.30;57.80
47813;DHT22;34221;45.296;9.516;2022-07-23T01:38:29;29.20;57.90
47813;DHT22;34221;45.296;9.516;2022-07-23T01:38:44;29.30;57.90
47813;DHT22;34221;45.296;9.516;2022-07-23T01:39:00;29.30;57.70
47813;DHT22;34221;45.296;9.516;2022-07-23T01:39:15;29.30;58.20
47813;DHT22;34221;45.296;9.516;2022-07-23T01:39:30;29.30;58.00
47813;DHT22;34221;45.296;9.516;2022-07-23T01:39:46;29.30;58.40
47813;DHT22;34221;45.296;9.516;2022-07-23T01:40:02;29.30;58.00
47813;DHT22;34221;45.296;9.516;2022-07-23T01:40:18;29.30;57.80
47813;DHT22;34221;45.296;9.516;2022-07-23T01:40:35;29.20;57.60
47813;DHT22;34221;45.296;9.516;2022-07-23T01:40:50;29.20;57.70